CheckWX is a tool to help pilots better visualize weather data.  It is not intended as a substitute for an official pre-flight weather briefing.

02:54:59 UTC

KCOS METAR
City of Colorado Springs Municipal Airport
Colorado Springs, Colorado, USA
Current

1 hour ago

KCOS 240154Z 01012KT 10SM FEW020 FEW090 04/M01 A3001 RMK AO2 SLP173 T00391011
Observed
Mar-24 @ 01:54 UTC
Wind
  • 010° at 12 KTS
Visibility
10 SM
Flight Rules
VFR
Cloud Levels
  • Few at 2,000' AGL
  • Few at 9,000' AGL
Temperature
C / 39°F
Dewpoint
-1°C / 30°F
Humidity
70%
Altimeter
30.01" Hg
Pressure
1017.3 hPa
Previous

2 hours ago

KCOS 240054Z 02017KT 10SM FEW050 FEW100 05/M01 A2998 RMK AO2 SLP163 T00501006
Observed
Mar-24 @ 00:54 UTC
Wind
  • 020° at 17 KTS
Visibility
10 SM
Flight Rules
VFR
Cloud Levels
  • Few at 5,000' AGL
  • Few at 10,000' AGL
Temperature
C / 41°F
Dewpoint
-1°C / 30°F
Humidity
66%
Altimeter
29.98" Hg
Pressure
1016.3 hPa
Previous

3 hours ago

KCOS 232354Z 03014G17KT 10SM FEW050 SCT100 08/00 A2995 RMK AO2 SLP141 T00830000 10128 20078 53015
Observed
Mar-23 @ 23:54 UTC
Wind
  • 030° at 14 KTS
  • Gusting to 17 KTS
Visibility
10 SM
Flight Rules
VFR
Cloud Levels
  • Few at 5,000' AGL
  • Scattered at 10,000' AGL
Temperature
C / 46°F
Dewpoint
C / 32°F
Humidity
57%
Altimeter
29.95" Hg
Pressure
1014.1 hPa